sensor_id;sensor_type;location;lat;lon;timestamp;P1;durP1;ratioP1;P2;durP2;ratioP2
12990;SDS011;6560;57.692;11.958;2024-02-21T00:00:37;34.87;;;7.23;;
12990;SDS011;6560;57.692;11.958;2024-02-21T00:03:04;38.13;;;7.73;;
12990;SDS011;6560;57.692;11.958;2024-02-21T00:05:30;32.37;;;7.63;;
12990;SDS011;6560;57.692;11.958;2024-02-21T00:07:55;42.70;;;8.33;;
12990;SDS011;6560;57.692;11.958;2024-02-21T00:10:22;30.07;;;8.07;;
12990;SDS011;6560;57.692;11.958;2024-02-21T00:12:48;37.03;;;7.80;;
12990;SDS011;6560;57.692;11.958;2024-02-21T00:15:13;29.60;;;8.57;;
12990;SDS011;6560;57.692;11.958;2024-02-21T00:17:39;28.20;;;6.90;;
12990;SDS011;6560;57.692;11.958;2024-02-21T00:20:04;35.37;;;7.20;;
12990;SDS011;6560;57.692;11.958;2024-02-21T00:22:30;36.77;;;8.40;;
12990;SDS011;6560;57.692;11.958;2024-02-21T00:24:56;29.87;;;7.80;;
12990;SDS011;6560;57.692;11.958;2024-02-21T00:27:23;50.00;;;9.43;;
12990;SDS011;6560;57.692;11.958;2024-02-21T00:29:48;36.20;;;9.27;;
12990;SDS011;6560;57.692;11.958;2024-02-21T00:32:14;43.00;;;8.23;;
12990;SDS011;6560;57.692;11.958;2024-02-21T00:34:39;29.17;;;7.60;;
12990;SDS011;6560;57.692;11.958;2024-02-21T00:37:05;35.03;;;7.40;;
12990;SDS011;6560;57.692;11.958;2024-02-21T00:39:30;40.10;;;8.40;;
12990;SDS011;6560;57.692;11.958;2024-02-21T00:41:56;34.00;;;8.17;;
12990;SDS011;6560;57.692;11.958;2024-02-21T00:44:21;32.53;;;7.97;;
12990;SDS011;6560;57.692;11.958;2024-02-21T00:46:47;36.27;;;7.57;;
12990;SDS011;6560;57.692;11.958;2024-02-21T00:49:12;30.63;;;7.63;;
12990;SDS011;6560;57.692;11.958;2024-02-21T00:51:38;36.17;;;7.37;;
12990;SDS011;6560;57.692;11.958;2024-02-21T00:54:03;36.87;;;6.97;;
12990;SDS011;6560;57.692;11.958;2024-02-21T00:56:28;28.67;;;6.73;;
12990;SDS011;6560;57.692;11.958;2024-02-21T00:58:55;27.60;;;6.70;;
12990;SDS011;6560;57.692;11.958;2024-02-21T01:01:24;36.63;;;8.33;;
12990;SDS011;6560;57.692;11.958;2024-02-21T01:03:50;30.20;;;7.57;;
12990;SDS011;6560;57.692;11.958;2024-02-21T01:06:18;37.63;;;7.97;;
12990;SDS011;6560;57.692;11.958;2024-02-21T01:08:47;31.13;;;8.20;;
12990;SDS011;6560;57.692;11.958;2024-02-21T01:11:13;38.20;;;8.80;;
12990;SDS011;6560;57.692;11.958;2024-02-21T01:13:39;36.13;;;8.97;;
12990;SDS011;6560;57.692;11.958;2024-02-21T01:16:04;37.47;;;7.83;;
12990;SDS011;6560;57.692;11.958;2024-02-21T01:18:31;38.30;;;8.90;;
12990;SDS011;6560;57.692;11.958;2024-02-21T01:20:59;34.97;;;7.50;;
12990;SDS011;6560;57.692;11.958;2024-02-21T01:23:25;39.37;;;7.90;;
12990;SDS011;6560;57.692;11.958;2024-02-21T01:25:51;35.13;;;7.97;;
12990;SDS011;6560;57.692;11.958;2024-02-21T01:28:17;23.13;;;6.90;;
12990;SDS011;6560;57.692;11.958;2024-02-21T01:30:43;17.40;;;5.07;;
12990;SDS011;6560;57.692;11.958;2024-02-21T01:33:08;14.90;;;5.30;;
12990;SDS011;6560;57.692;11.958;2024-02-21T01:35:34;28.33;;;5.90;;
12990;SDS011;6560;57.692;11.958;2024-02-21T01:38:00;18.77;;;5.63;;
12990;SDS011;6560;57.692;11.958;2024-02-21T01:40:26;23.70;;;5.20;;
12990;SDS011;6560;57.692;11.958;2024-02-21T01:42:52;20.37;;;5.23;;
12990;SDS011;6560;57.692;11.958;2024-02-21T01:45:19;19.77;;;4.87;;
12990;SDS011;6560;57.692;11.958;2024-02-21T01:47:45;24.33;;;5.53;;
12990;SDS011;6560;57.692;11.958;2024-02-21T01:50:10;20.03;;;4.90;;
12990;SDS011;6560;57.692;11.958;2024-02-21T01:52:37;24.07;;;5.90;;
12990;SDS011;6560;57.692;11.958;2024-02-21T01:55:03;15.97;;;4.70;;
12990;SDS011;6560;57.692;11.958;2024-02-21T01:57:29;14.53;;;4.70;;
12990;SDS011;6560;57.692;11.958;2024-02-21T01:59:54;13.03;;;4.67;;
12990;SDS011;6560;57.692;11.958;2024-02-21T02:02:20;15.17;;;4.90;;
12990;SDS011;6560;57.692;11.958;2024-02-21T02:04:46;21.30;;;5.67;;
12990;SDS011;6560;57.692;11.958;2024-02-21T02:07:11;18.53;;;4.77;;
12990;SDS011;6560;57.692;11.958;2024-02-21T02:09:37;23.77;;;5.67;;
12990;SDS011;6560;57.692;11.958;2024-02-21T02:12:02;13.20;;;4.03;;
12990;SDS011;6560;57.692;11.958;2024-02-21T02:14:28;17.10;;;4.40;;
12990;SDS011;6560;57.692;11.958;2024-02-21T02:16:53;14.53;;;4.23;;
12990;SDS011;6560;57.692;11.958;2024-02-21T02:19:19;14.77;;;4.70;;
12990;SDS011;6560;57.692;11.958;2024-02-21T02:21:46;23.10;;;6.70;;
12990;SDS011;6560;57.692;11.958;2024-02-21T02:24:13;18.80;;;5.37;;
12990;SDS011;6560;57.692;11.958;2024-02-21T02:26:39;19.90;;;6.17;;
12990;SDS011;6560;57.692;11.958;2024-02-21T02:29:05;17.77;;;6.30;;
12990;SDS011;6560;57.692;11.958;2024-02-21T02:31:30;20.67;;;6.03;;
12990;SDS011;6560;57.692;11.958;2024-02-21T02:33:56;18.53;;;5.33;;
12990;SDS011;6560;57.692;11.958;2024-02-21T02:36:21;14.73;;;4.73;;
12990;SDS011;6560;57.692;11.958;2024-02-21T02:38:46;19.97;;;5.53;;
12990;SDS011;6560;57.692;11.958;2024-02-21T02:41:12;17.10;;;5.03;;
12990;SDS011;6560;57.692;11.958;2024-02-21T02:43:37;19.73;;;6.17;;
12990;SDS011;6560;57.692;11.958;2024-02-21T02:46:03;23.03;;;7.00;;
12990;SDS011;6560;57.692;11.958;2024-02-21T02:48:29;26.30;;;7.67;;
12990;SDS011;6560;57.692;11.958;2024-02-21T02:50:54;30.53;;;7.33;;
12990;SDS011;6560;57.692;11.958;2024-02-21T02:53:20;20.70;;;7.80;;
12990;SDS011;6560;57.692;11.958;2024-02-21T02:55:45;22.43;;;6.97;;
12990;SDS011;6560;57.692;11.958;2024-02-21T02:58:11;20.93;;;6.10;;
12990;SDS011;6560;57.692;11.958;2024-02-21T03:00:37;22.10;;;6.13;;
12990;SDS011;6560;57.692;11.958;2024-02-21T03:03:04;12.03;;;6.03;;
12990;SDS011;6560;57.692;11.958;2024-02-21T03:05:29;15.97;;;5.47;;
12990;SDS011;6560;57.692;11.958;2024-02-21T03:07:55;14.10;;;5.50;;
12990;SDS011;6560;57.692;11.958;2024-02-21T03:10:20;16.67;;;5.27;;
12990;SDS011;6560;57.692;11.958;2024-02-21T03:12:46;10.90;;;4.70;;
12990;SDS011;6560;57.692;11.958;2024-02-21T03:15:12;10.87;;;4.53;;
12990;SDS011;6560;57.692;11.958;2024-02-21T03:17:38;10.67;;;4.30;;
12990;SDS011;6560;57.692;11.958;2024-02-21T03:20:04;7.30;;;4.03;;
12990;SDS011;6560;57.692;11.958;2024-02-21T03:22:33;7.17;;;3.27;;
12990;SDS011;6560;57.692;11.958;2024-02-21T03:24:59;9.10;;;3.43;;
12990;SDS011;6560;57.692;11.958;2024-02-21T03:27:24;8.43;;;2.73;;
12990;SDS011;6560;57.692;11.958;2024-02-21T03:29:51;9.73;;;3.83;;
12990;SDS011;6560;57.692;11.958;2024-02-21T03:32:16;5.63;;;2.60;;
12990;SDS011;6560;57.692;11.958;2024-02-21T03:34:42;9.67;;;3.10;;
12990;SDS011;6560;57.692;11.958;2024-02-21T03:37:07;12.50;;;2.60;;
12990;SDS011;6560;57.692;11.958;2024-02-21T03:39:33;7.27;;;2.60;;
12990;SDS011;6560;57.692;11.958;2024-02-21T03:41:58;10.00;;;2.37;;
12990;SDS011;6560;57.692;11.958;2024-02-21T03:44:30;8.23;;;2.20;;
12990;SDS011;6560;57.692;11.958;2024-02-21T03:46:56;6.03;;;1.90;;
12990;SDS011;6560;57.692;11.958;2024-02-21T03:49:21;6.20;;;1.73;;
12990;SDS011;6560;57.692;11.958;2024-02-21T03:51:47;10.23;;;2.13;;
12990;SDS011;6560;57.692;11.958;2024-02-21T03:54:12;9.40;;;1.73;;
12990;SDS011;6560;57.692;11.958;2024-02-21T03:56:38;9.77;;;1.77;;
12990;SDS011;6560;57.692;11.958;2024-02-21T03:59:07;5.27;;;1.77;;
12990;SDS011;6560;57.692;11.958;2024-02-21T04:01:33;1.33;;;1.17;;
12990;SDS011;6560;57.692;11.958;2024-02-21T04:03:59;6.67;;;1.40;;
12990;SDS011;6560;57.692;11.958;2024-02-21T04:06:25;3.27;;;1.23;;
12990;SDS011;6560;57.692;11.958;2024-02-21T04:08:50;2.73;;;1.10;;
12990;SDS011;6560;57.692;11.958;2024-02-21T04:11:15;3.10;;;1.47;;
12990;SDS011;6560;57.692;11.958;2024-02-21T04:13:42;2.37;;;1.47;;
12990;SDS011;6560;57.692;11.958;2024-02-21T04:16:08;6.80;;;1.60;;
12990;SDS011;6560;57.692;11.958;2024-02-21T04:18:33;3.63;;;1.67;;
12990;SDS011;6560;57.692;11.958;2024-02-21T04:20:59;4.20;;;2.17;;
12990;SDS011;6560;57.692;11.958;2024-02-21T04:23:24;3.20;;;1.50;;
12990;SDS011;6560;57.692;11.958;2024-02-21T04:25:49;5.03;;;2.00;;
12990;SDS011;6560;57.692;11.958;2024-02-21T04:28:15;6.83;;;2.10;;
12990;SDS011;6560;57.692;11.958;2024-02-21T04:30:40;4.80;;;2.13;;
12990;SDS011;6560;57.692;11.958;2024-02-21T04:33:06;5.20;;;2.07;;
12990;SDS011;6560;57.692;11.958;2024-02-21T04:35:31;3.23;;;2.40;;
12990;SDS011;6560;57.692;11.958;2024-02-21T04:37:57;4.43;;;2.43;;
12990;SDS011;6560;57.692;11.958;2024-02-21T04:40:22;3.23;;;2.07;;
12990;SDS011;6560;57.692;11.958;2024-02-21T04:42:47;8.03;;;2.60;;
12990;SDS011;6560;57.692;11.958;2024-02-21T04:45:13;6.17;;;2.53;;
12990;SDS011;6560;57.692;11.958;2024-02-21T04:47:38;8.40;;;2.47;;
12990;SDS011;6560;57.692;11.958;2024-02-21T04:50:04;10.27;;;4.30;;
12990;SDS011;6560;57.692;11.958;2024-02-21T04:52:29;12.03;;;3.67;;
12990;SDS011;6560;57.692;11.958;2024-02-21T04:54:55;14.27;;;3.70;;
12990;SDS011;6560;57.692;11.958;2024-02-21T04:57:21;8.07;;;3.60;;
12990;SDS011;6560;57.692;11.958;2024-02-21T04:59:46;9.40;;;4.30;;
12990;SDS011;6560;57.692;11.958;2024-02-21T05:02:13;8.70;;;3.67;;
12990;SDS011;6560;57.692;11.958;2024-02-21T05:04:40;9.70;;;4.30;;
12990;SDS011;6560;57.692;11.958;2024-02-21T05:07:06;11.03;;;4.17;;
12990;SDS011;6560;57.692;11.958;2024-02-21T05:09:32;10.07;;;4.00;;
12990;SDS011;6560;57.692;11.958;2024-02-21T05:11:58;11.13;;;3.53;;
12990;SDS011;6560;57.692;11.958;2024-02-21T05:14:26;8.23;;;2.90;;
12990;SDS011;6560;57.692;11.958;2024-02-21T05:16:52;9.37;;;3.13;;
12990;SDS011;6560;57.692;11.958;2024-02-21T05:19:17;8.00;;;3.17;;
12990;SDS011;6560;57.692;11.958;2024-02-21T05:21:43;7.77;;;2.80;;
12990;SDS011;6560;57.692;11.958;2024-02-21T05:24:08;10.27;;;3.80;;
12990;SDS011;6560;57.692;11.958;2024-02-21T05:26:34;9.43;;;3.30;;
12990;SDS011;6560;57.692;11.958;2024-02-21T05:28:59;10.57;;;3.00;;
12990;SDS011;6560;57.692;11.958;2024-02-21T05:31:24;10.50;;;3.50;;
12990;SDS011;6560;57.692;11.958;2024-02-21T05:33:50;12.70;;;3.27;;
12990;SDS011;6560;57.692;11.958;2024-02-21T05:36:15;7.67;;;2.83;;
12990;SDS011;6560;57.692;11.958;2024-02-21T05:38:41;16.40;;;2.57;;
12990;SDS011;6560;57.692;11.958;2024-02-21T05:41:06;9.03;;;2.43;;
12990;SDS011;6560;57.692;11.958;2024-02-21T05:43:32;5.87;;;2.27;;
12990;SDS011;6560;57.692;11.958;2024-02-21T05:45:57;9.13;;;2.33;;
12990;SDS011;6560;57.692;11.958;2024-02-21T05:48:23;11.63;;;2.83;;
12990;SDS011;6560;57.692;11.958;2024-02-21T05:50:48;10.03;;;2.17;;
12990;SDS011;6560;57.692;11.958;2024-02-21T05:53:14;7.67;;;2.00;;
12990;SDS011;6560;57.692;11.958;2024-02-21T05:55:40;8.17;;;2.07;;
12990;SDS011;6560;57.692;11.958;2024-02-21T05:58:05;8.47;;;2.30;;
12990;SDS011;6560;57.692;11.958;2024-02-21T06:00:31;8.23;;;2.00;;
12990;SDS011;6560;57.692;11.958;2024-02-21T06:02:57;9.97;;;2.57;;
12990;SDS011;6560;57.692;11.958;2024-02-21T06:05:22;9.37;;;1.90;;
12990;SDS011;6560;57.692;11.958;2024-02-21T06:07:48;5.77;;;1.80;;
12990;SDS011;6560;57.692;11.958;2024-02-21T06:10:13;8.33;;;1.83;;
12990;SDS011;6560;57.692;11.958;2024-02-21T06:12:39;9.30;;;1.93;;
12990;SDS011;6560;57.692;11.958;2024-02-21T06:15:04;14.43;;;3.43;;
12990;SDS011;6560;57.692;11.958;2024-02-21T06:17:30;8.67;;;2.53;;
12990;SDS011;6560;57.692;11.958;2024-02-21T06:19:56;10.23;;;2.20;;
12990;SDS011;6560;57.692;11.958;2024-02-21T06:22:21;13.60;;;2.83;;
12990;SDS011;6560;57.692;11.958;2024-02-21T06:24:46;17.30;;;2.70;;
12990;SDS011;6560;57.692;11.958;2024-02-21T06:27:12;13.17;;;2.93;;
12990;SDS011;6560;57.692;11.958;2024-02-21T06:29:39;7.27;;;2.83;;
12990;SDS011;6560;57.692;11.958;2024-02-21T06:32:05;9.50;;;3.30;;
12990;SDS011;6560;57.692;11.958;2024-02-21T06:34:31;12.87;;;2.83;;
12990;SDS011;6560;57.692;11.958;2024-02-21T06:36:56;12.40;;;3.13;;
12990;SDS011;6560;57.692;11.958;2024-02-21T06:39:22;10.90;;;2.97;;
12990;SDS011;6560;57.692;11.958;2024-02-21T06:41:48;7.03;;;2.20;;
12990;SDS011;6560;57.692;11.958;2024-02-21T06:44:15;7.67;;;2.13;;
12990;SDS011;6560;57.692;11.958;2024-02-21T06:46:43;4.87;;;1.83;;
12990;SDS011;6560;57.692;11.958;2024-02-21T06:49:08;9.83;;;1.93;;
12990;SDS011;6560;57.692;11.958;2024-02-21T06:51:34;3.50;;;1.43;;
12990;SDS011;6560;57.692;11.958;2024-02-21T06:54:00;6.03;;;1.43;;
12990;SDS011;6560;57.692;11.958;2024-02-21T06:56:25;8.40;;;2.00;;
12990;SDS011;6560;57.692;11.958;2024-02-21T06:58:54;9.20;;;2.03;;
12990;SDS011;6560;57.692;11.958;2024-02-21T07:01:20;6.30;;;1.60;;
12990;SDS011;6560;57.692;11.958;2024-02-21T07:03:45;5.23;;;1.70;;
12990;SDS011;6560;57.692;11.958;2024-02-21T07:06:11;9.87;;;1.60;;
12990;SDS011;6560;57.692;11.958;2024-02-21T07:08:37;6.03;;;1.53;;
12990;SDS011;6560;57.692;11.958;2024-02-21T07:11:03;6.77;;;1.97;;
12990;SDS011;6560;57.692;11.958;2024-02-21T07:13:29;7.53;;;1.47;;
12990;SDS011;6560;57.692;11.958;2024-02-21T07:15:55;9.73;;;3.07;;
12990;SDS011;6560;57.692;11.958;2024-02-21T07:18:20;7.77;;;2.67;;
12990;SDS011;6560;57.692;11.958;2024-02-21T07:20:46;5.63;;;2.27;;
12990;SDS011;6560;57.692;11.958;2024-02-21T07:23:11;5.47;;;1.40;;
12990;SDS011;6560;57.692;11.958;2024-02-21T07:25:37;5.10;;;1.37;;
12990;SDS011;6560;57.692;11.958;2024-02-21T07:28:02;2.37;;;1.13;;
12990;SDS011;6560;57.692;11.958;2024-02-21T07:30:28;5.43;;;2.53;;
12990;SDS011;6560;57.692;11.958;2024-02-21T07:32:53;8.07;;;2.40;;
12990;SDS011;6560;57.692;11.958;2024-02-21T07:35:18;9.47;;;3.23;;
12990;SDS011;6560;57.692;11.958;2024-02-21T07:37:44;5.43;;;1.93;;
12990;SDS011;6560;57.692;11.958;2024-02-21T07:40:14;1.50;;;1.30;;
12990;SDS011;6560;57.692;11.958;2024-02-21T07:42:40;3.30;;;1.60;;
12990;SDS011;6560;57.692;11.958;2024-02-21T07:45:07;7.37;;;2.00;;
12990;SDS011;6560;57.692;11.958;2024-02-21T07:47:33;5.50;;;2.47;;
12990;SDS011;6560;57.692;11.958;2024-02-21T07:49:58;2.93;;;1.53;;
12990;SDS011;6560;57.692;11.958;2024-02-21T07:52:25;3.70;;;1.87;;
12990;SDS011;6560;57.692;11.958;2024-02-21T07:54:50;2.97;;;1.30;;
12990;SDS011;6560;57.692;11.958;2024-02-21T07:57:16;1.73;;;1.50;;
12990;SDS011;6560;57.692;11.958;2024-02-21T07:59:41;4.73;;;2.00;;
12990;SDS011;6560;57.692;11.958;2024-02-21T08:02:07;9.17;;;3.10;;
12990;SDS011;6560;57.692;11.958;2024-02-21T08:04:33;4.00;;;1.80;;
12990;SDS011;6560;57.692;11.958;2024-02-21T08:06:58;2.17;;;1.73;;
12990;SDS011;6560;57.692;11.958;2024-02-21T08:09:29;5.30;;;1.73;;
12990;SDS011;6560;57.692;11.958;2024-02-21T08:11:55;6.07;;;1.70;;
12990;SDS011;6560;57.692;11.958;2024-02-21T08:14:20;4.40;;;1.60;;
12990;SDS011;6560;57.692;11.958;2024-02-21T08:16:47;5.93;;;2.33;;
12990;SDS011;6560;57.692;11.958;2024-02-21T08:19:13;3.53;;;1.70;;
12990;SDS011;6560;57.692;11.958;2024-02-21T08:21:38;4.10;;;2.23;;
12990;SDS011;6560;57.692;11.958;2024-02-21T08:24:04;7.07;;;2.47;;
12990;SDS011;6560;57.692;11.958;2024-02-21T08:26:30;6.20;;;2.47;;
12990;SDS011;6560;57.692;11.958;2024-02-21T08:28:56;6.10;;;2.37;;
12990;SDS011;6560;57.692;11.958;2024-02-21T08:31:25;5.00;;;2.57;;
12990;SDS011;6560;57.692;11.958;2024-02-21T08:33:56;5.17;;;2.63;;
12990;SDS011;6560;57.692;11.958;2024-02-21T08:36:30;6.70;;;3.10;;
12990;SDS011;6560;57.692;11.958;2024-02-21T08:38:57;10.90;;;3.30;;
12990;SDS011;6560;57.692;11.958;2024-02-21T08:41:23;4.43;;;2.60;;
12990;SDS011;6560;57.692;11.958;2024-02-21T08:43:53;3.03;;;1.83;;
12990;SDS011;6560;57.692;11.958;2024-02-21T08:46:19;5.57;;;1.80;;
12990;SDS011;6560;57.692;11.958;2024-02-21T08:48:49;3.30;;;2.00;;
12990;SDS011;6560;57.692;11.958;2024-02-21T08:51:14;2.03;;;1.43;;
12990;SDS011;6560;57.692;11.958;2024-02-21T08:53:40;2.90;;;1.50;;
12990;SDS011;6560;57.692;11.958;2024-02-21T08:56:05;2.77;;;1.90;;
12990;SDS011;6560;57.692;11.958;2024-02-21T08:58:32;2.73;;;1.10;;
12990;SDS011;6560;57.692;11.958;2024-02-21T09:00:58;2.30;;;1.07;;
12990;SDS011;6560;57.692;11.958;2024-02-21T09:03:23;2.00;;;1.50;;
12990;SDS011;6560;57.692;11.958;2024-02-21T09:05:50;2.07;;;1.10;;
12990;SDS011;6560;57.692;11.958;2024-02-21T09:08:15;0.93;;;0.83;;
12990;SDS011;6560;57.692;11.958;2024-02-21T09:10:41;2.10;;;0.70;;
12990;SDS011;6560;57.692;11.958;2024-02-21T09:13:06;3.00;;;1.13;;
12990;SDS011;6560;57.692;11.958;2024-02-21T09:15:33;1.07;;;0.60;;
12990;SDS011;6560;57.692;11.958;2024-02-21T09:17:59;1.90;;;0.80;;
12990;SDS011;6560;57.692;11.958;2024-02-21T09:20:24;4.53;;;1.00;;
12990;SDS011;6560;57.692;11.958;2024-02-21T09:22:50;1.43;;;1.00;;
12990;SDS011;6560;57.692;11.958;2024-02-21T09:25:15;6.43;;;1.90;;
12990;SDS011;6560;57.692;11.958;2024-02-21T09:27:41;3.53;;;2.00;;
12990;SDS011;6560;57.692;11.958;2024-02-21T09:30:06;5.90;;;2.77;;
12990;SDS011;6560;57.692;11.958;2024-02-21T09:32:32;17.43;;;3.17;;
12990;SDS011;6560;57.692;11.958;2024-02-21T09:34:58;29.00;;;4.07;;
12990;SDS011;6560;57.692;11.958;2024-02-21T09:37:23;15.93;;;3.37;;
12990;SDS011;6560;57.692;11.958;2024-02-21T09:39:49;22.13;;;3.33;;
12990;SDS011;6560;57.692;11.958;2024-02-21T09:42:16;23.47;;;3.40;;
12990;SDS011;6560;57.692;11.958;2024-02-21T09:44:45;7.30;;;2.87;;
12990;SDS011;6560;57.692;11.958;2024-02-21T09:47:17;7.47;;;2.50;;
12990;SDS011;6560;57.692;11.958;2024-02-21T09:49:44;6.57;;;2.30;;
12990;SDS011;6560;57.692;11.958;2024-02-21T09:52:10;6.53;;;2.63;;
12990;SDS011;6560;57.692;11.958;2024-02-21T09:54:39;5.03;;;2.07;;
12990;SDS011;6560;57.692;11.958;2024-02-21T09:57:05;3.47;;;1.73;;
12990;SDS011;6560;57.692;11.958;2024-02-21T09:59:31;3.47;;;1.87;;
12990;SDS011;6560;57.692;11.958;2024-02-21T10:01:57;4.27;;;2.17;;
12990;SDS011;6560;57.692;11.958;2024-02-21T10:04:32;5.37;;;1.97;;
12990;SDS011;6560;57.692;11.958;2024-02-21T10:06:57;5.13;;;2.20;;
12990;SDS011;6560;57.692;11.958;2024-02-21T10:09:23;14.70;;;2.33;;
12990;SDS011;6560;57.692;11.958;2024-02-21T10:11:50;10.40;;;2.50;;
12990;SDS011;6560;57.692;11.958;2024-02-21T10:14:16;7.93;;;2.40;;
12990;SDS011;6560;57.692;11.958;2024-02-21T10:16:43;4.90;;;2.43;;
12990;SDS011;6560;57.692;11.958;2024-02-21T10:19:19;6.60;;;2.70;;
12990;SDS011;6560;57.692;11.958;2024-02-21T10:21:57;4.37;;;2.07;;
12990;SDS011;6560;57.692;11.958;2024-02-21T10:24:27;5.67;;;2.20;;
12990;SDS011;6560;57.692;11.958;2024-02-21T10:27:01;3.80;;;1.40;;
12990;SDS011;6560;57.692;11.958;2024-02-21T10:29:28;1.97;;;1.07;;
12990;SDS011;6560;57.692;11.958;2024-02-21T10:34:34;1.30;;;0.80;;
12990;SDS011;6560;57.692;11.958;2024-02-21T10:37:01;1.40;;;0.90;;
12990;SDS011;6560;57.692;11.958;2024-02-21T10:39:31;2.17;;;1.57;;
12990;SDS011;6560;57.692;11.958;2024-02-21T10:41:58;1.73;;;1.47;;
12990;SDS011;6560;57.692;11.958;2024-02-21T10:44:28;3.43;;;2.30;;
12990;SDS011;6560;57.692;11.958;2024-02-21T10:46:55;2.33;;;1.70;;
12990;SDS011;6560;57.692;11.958;2024-02-21T10:49:24;2.80;;;1.93;;
12990;SDS011;6560;57.692;11.958;2024-02-21T10:51:54;4.37;;;2.23;;
12990;SDS011;6560;57.692;11.958;2024-02-21T10:54:29;4.50;;;2.00;;
12990;SDS011;6560;57.692;11.958;2024-02-21T10:56:59;3.00;;;2.07;;
12990;SDS011;6560;57.692;11.958;2024-02-21T10:59:25;3.83;;;2.27;;
12990;SDS011;6560;57.692;11.958;2024-02-21T11:01:54;4.43;;;2.07;;
12990;SDS011;6560;57.692;11.958;2024-02-21T11:04:19;7.17;;;3.80;;
12990;SDS011;6560;57.692;11.958;2024-02-21T11:06:46;5.07;;;3.10;;
12990;SDS011;6560;57.692;11.958;2024-02-21T11:09:12;5.53;;;3.30;;
12990;SDS011;6560;57.692;11.958;2024-02-21T11:11:41;8.37;;;4.77;;
12990;SDS011;6560;57.692;11.958;2024-02-21T11:16:35;7.17;;;3.00;;
12990;SDS011;6560;57.692;11.958;2024-02-21T11:21:34;4.47;;;2.60;;
12990;SDS011;6560;57.692;11.958;2024-02-21T11:24:03;5.53;;;2.50;;
12990;SDS011;6560;57.692;11.958;2024-02-21T11:26:32;5.33;;;3.17;;
12990;SDS011;6560;57.692;11.958;2024-02-21T11:29:01;6.27;;;3.27;;
12990;SDS011;6560;57.692;11.958;2024-02-21T11:31:43;11.20;;;4.03;;
12990;SDS011;6560;57.692;11.958;2024-02-21T11:34:11;8.13;;;4.07;;
12990;SDS011;6560;57.692;11.958;2024-02-21T11:36:45;4.80;;;3.70;;
12990;SDS011;6560;57.692;11.958;2024-02-21T11:39:22;10.57;;;4.50;;
12990;SDS011;6560;57.692;11.958;2024-02-21T11:42:04;10.13;;;3.90;;
12990;SDS011;6560;57.692;11.958;2024-02-21T11:44:32;8.73;;;4.40;;
12990;SDS011;6560;57.692;11.958;2024-02-21T11:46:59;10.20;;;4.67;;
12990;SDS011;6560;57.692;11.958;2024-02-21T11:49:25;8.57;;;3.87;;
12990;SDS011;6560;57.692;11.958;2024-02-21T11:51:58;8.83;;;4.40;;
12990;SDS011;6560;57.692;11.958;2024-02-21T11:54:29;9.30;;;4.03;;
12990;SDS011;6560;57.692;11.958;2024-02-21T11:56:54;8.40;;;4.10;;
12990;SDS011;6560;57.692;11.958;2024-02-21T11:59:20;8.27;;;4.27;;
12990;SDS011;6560;57.692;11.958;2024-02-21T12:01:46;8.27;;;4.60;;
12990;SDS011;6560;57.692;11.958;2024-02-21T12:04:12;9.77;;;4.80;;
12990;SDS011;6560;57.692;11.958;2024-02-21T12:06:38;11.70;;;5.73;;
12990;SDS011;6560;57.692;11.958;2024-02-21T12:09:06;7.57;;;4.03;;
12990;SDS011;6560;57.692;11.958;2024-02-21T12:11:34;7.50;;;3.93;;
12990;SDS011;6560;57.692;11.958;2024-02-21T12:14:00;5.03;;;3.77;;
12990;SDS011;6560;57.692;11.958;2024-02-21T12:16:27;9.10;;;5.40;;
12990;SDS011;6560;57.692;11.958;2024-02-21T12:18:53;7.53;;;5.27;;
12990;SDS011;6560;57.692;11.958;2024-02-21T12:21:19;12.40;;;5.40;;
12990;SDS011;6560;57.692;11.958;2024-02-21T12:23:44;9.50;;;4.97;;
12990;SDS011;6560;57.692;11.958;2024-02-21T12:26:12;9.13;;;4.37;;
12990;SDS011;6560;57.692;11.958;2024-02-21T12:28:37;8.73;;;4.93;;
12990;SDS011;6560;57.692;11.958;2024-02-21T12:31:03;11.07;;;5.20;;
12990;SDS011;6560;57.692;11.958;2024-02-21T12:33:29;6.97;;;4.67;;
12990;SDS011;6560;57.692;11.958;2024-02-21T12:35:55;9.00;;;4.70;;
12990;SDS011;6560;57.692;11.958;2024-02-21T12:38:20;9.17;;;4.73;;
12990;SDS011;6560;57.692;11.958;2024-02-21T12:40:46;9.53;;;4.80;;
12990;SDS011;6560;57.692;11.958;2024-02-21T12:43:11;9.80;;;4.70;;
12990;SDS011;6560;57.692;11.958;2024-02-21T12:45:37;6.63;;;4.43;;
12990;SDS011;6560;57.692;11.958;2024-02-21T12:48:02;5.23;;;4.10;;
12990;SDS011;6560;57.692;11.958;2024-02-21T12:50:29;8.53;;;3.80;;
12990;SDS011;6560;57.692;11.958;2024-02-21T12:52:56;11.47;;;4.00;;
12990;SDS011;6560;57.692;11.958;2024-02-21T12:55:22;4.30;;;3.70;;
12990;SDS011;6560;57.692;11.958;2024-02-21T12:57:48;7.33;;;4.10;;
12990;SDS011;6560;57.692;11.958;2024-02-21T13:00:14;6.07;;;3.70;;
12990;SDS011;6560;57.692;11.958;2024-02-21T13:02:39;9.13;;;4.53;;
12990;SDS011;6560;57.692;11.958;2024-02-21T13:05:05;11.43;;;5.33;;
12990;SDS011;6560;57.692;11.958;2024-02-21T13:07:32;11.40;;;5.00;;
12990;SDS011;6560;57.692;11.958;2024-02-21T13:09:57;5.13;;;4.37;;
12990;SDS011;6560;57.692;11.958;2024-02-21T13:12:23;6.00;;;3.93;;
12990;SDS011;6560;57.692;11.958;2024-02-21T13:14:51;6.23;;;3.60;;
12990;SDS011;6560;57.692;11.958;2024-02-21T13:17:16;6.07;;;3.50;;
12990;SDS011;6560;57.692;11.958;2024-02-21T13:19:42;3.70;;;2.60;;
12990;SDS011;6560;57.692;11.958;2024-02-21T13:22:07;6.13;;;3.17;;
12990;SDS011;6560;57.692;11.958;2024-02-21T13:24:32;6.13;;;3.50;;
12990;SDS011;6560;57.692;11.958;2024-02-21T13:26:58;5.97;;;3.60;;
12990;SDS011;6560;57.692;11.958;2024-02-21T13:29:24;4.07;;;2.90;;
12990;SDS011;6560;57.692;11.958;2024-02-21T13:31:49;3.37;;;2.83;;
12990;SDS011;6560;57.692;11.958;2024-02-21T13:34:15;4.93;;;2.13;;
12990;SDS011;6560;57.692;11.958;2024-02-21T13:36:42;5.07;;;2.77;;
12990;SDS011;6560;57.692;11.958;2024-02-21T13:39:07;2.67;;;1.73;;
12990;SDS011;6560;57.692;11.958;2024-02-21T13:41:33;4.80;;;2.40;;
12990;SDS011;6560;57.692;11.958;2024-02-21T13:43:59;4.80;;;2.73;;
12990;SDS011;6560;57.692;11.958;2024-02-21T13:46:25;8.00;;;1.93;;
12990;SDS011;6560;57.692;11.958;2024-02-21T13:48:52;2.47;;;2.00;;
12990;SDS011;6560;57.692;11.958;2024-02-21T13:51:19;3.83;;;2.00;;
12990;SDS011;6560;57.692;11.958;2024-02-21T13:53:45;4.57;;;2.00;;
12990;SDS011;6560;57.692;11.958;2024-02-21T13:56:10;2.47;;;1.90;;
12990;SDS011;6560;57.692;11.958;2024-02-21T13:58:36;3.67;;;1.87;;
12990;SDS011;6560;57.692;11.958;2024-02-21T14:01:02;4.00;;;1.73;;
12990;SDS011;6560;57.692;11.958;2024-02-21T14:03:28;3.07;;;1.60;;
12990;SDS011;6560;57.692;11.958;2024-02-21T14:05:53;3.30;;;1.50;;
12990;SDS011;6560;57.692;11.958;2024-02-21T14:08:19;2.40;;;1.47;;
12990;SDS011;6560;57.692;11.958;2024-02-21T14:10:45;5.47;;;1.73;;
12990;SDS011;6560;57.692;11.958;2024-02-21T14:13:10;5.43;;;1.53;;
12990;SDS011;6560;57.692;11.958;2024-02-21T14:15:36;2.87;;;1.40;;
12990;SDS011;6560;57.692;11.958;2024-02-21T14:18:06;3.10;;;1.40;;
12990;SDS011;6560;57.692;11.958;2024-02-21T14:20:34;3.87;;;2.60;;
12990;SDS011;6560;57.692;11.958;2024-02-21T14:22:59;6.87;;;2.30;;
12990;SDS011;6560;57.692;11.958;2024-02-21T14:25:25;5.60;;;1.53;;
12990;SDS011;6560;57.692;11.958;2024-02-21T14:27:50;8.50;;;1.63;;
12990;SDS011;6560;57.692;11.958;2024-02-21T14:30:16;9.33;;;1.83;;
12990;SDS011;6560;57.692;11.958;2024-02-21T14:32:43;4.83;;;1.33;;
12990;SDS011;6560;57.692;11.958;2024-02-21T14:35:09;6.83;;;1.63;;
12990;SDS011;6560;57.692;11.958;2024-02-21T14:37:35;6.83;;;1.87;;
12990;SDS011;6560;57.692;11.958;2024-02-21T14:40:00;5.17;;;2.63;;
12990;SDS011;6560;57.692;11.958;2024-02-21T14:42:26;5.13;;;1.60;;
12990;SDS011;6560;57.692;11.958;2024-02-21T14:44:51;6.37;;;1.50;;